Coral Pearl — PDDD — position and weather

sailwx.info

Track history (hours):
 
Tides and Currents Weather Stations Pressure Air Temp Water Temp Dewpoint Dewpoint Depression Visibility Wind Speed Wind Dir Waves Ship Positions

Coral Pearl

Last reported at 2018-Jun-21 09:56 UTC. Time now 2018-Jun-21 10:14 UTC.
Position N 51°02' E 002°16'.

Length 115 m; draft 6 m.

Type: Ship. MMSI: 244870430.

Date/timePositionNaut miles runAvg speedWind from/ knotsBaromVisibWave heightAir tempDewpointWater temp
2018-Jun-21 09:56N 51°02' E 002°16'0 0.0
2018-Jun-21 09:29N 51°02' E 002°16'0 0.0
2018-Jun-21 08:50N 51°02' E 002°16'0 0.0
2018-Jun-21 08:26N 51°02' E 002°16'0 0.0
2018-Jun-21 07:59N 51°02' E 002°16'0 0.0
2018-Jun-21 07:26N 51°02' E 002°16'0 0.0
2018-Jun-21 06:59N 51°02' E 002°16'0 0.0
2018-Jun-21 06:29N 51°02' E 002°16'0 0.0
2018-Jun-21 05:32N 51°02' E 002°16'0 0.0
2018-Jun-21 05:29N 51°02' E 002°16'0 0.0
2018-Jun-21 04:59N 51°02' E 002°16'0 0.0
2018-Jun-21 04:29N 51°02' E 002°16'0 0.0
2018-Jun-21 04:00N 51°02' E 002°16'2 3.1
2018-Jun-21 03:30N 51°03' E 002°18'2 2.3
2018-Jun-21 02:31N 51°04' E 002°21'0 6.0
2018-Jun-21 02:30N 51°04' E 002°21'612.0
2018-Jun-21 02:00N 51°03' E 002°12'815.2
2018-Jun-21 01:28N 51°02' E 001°59'612.3
2018-Jun-21 01:00N 51°02' E 001°50'2 5.0
2018-Jun-21 00:30N 51°03' E 001°46'2 4.6
2018-Jun-21 00:00N 51°05' E 001°44'4 9.0
2018-Jun-20 23:31N 51°09' E 001°41'611.8
2018-Jun-20 23:01N 51°14' E 001°46'611.8
2018-Jun-20 22:30N 51°19' E 001°50'714.3
2018-Jun-20 22:00N 51°25' E 001°57'815.0
2018-Jun-20 21:31N 51°23' E 002°08'714.6
2018-Jun-20 21:00N 51°21' E 002°20'814.4
2018-Jun-20 20:27N 51°23' E 002°32'614.6
2018-Jun-20 20:00N 51°24' E 002°43'612.1
2018-Jun-20 19:30N 51°25' E 002°52'815.2
2018-Jun-20 19:00N 51°25' E 003°04'714.4
2018-Jun-20 18:30N 51°25' E 003°16'714.3
2018-Jun-20 18:00N 51°25' E 003°27'713.8
2018-Jun-20 17:31N 51°26' E 003°38'612.3
2018-Jun-20 17:01N 51°22' E 003°45'713.1
2018-Jun-20 16:31N 51°22' E 003°55'5 9.7
2018-Jun-20 16:01N 51°25' E 004°02'510.7
2018-Jun-20 15:31N 51°23' E 004°10'5 9.9
2018-Jun-20 15:01N 51°21' E 004°17'0 0.4
2018-Jun-20 14:30N 51°21' E 004°17'0 0.0
2018-Jun-20 14:00N 51°21' E 004°17'0 0.7
2018-Jun-20 13:29N 51°21' E 004°18'1 1.8
2018-Jun-20 13:00N 51°20' E 004°18'3 5.0
2018-Jun-20 12:30N 51°18' E 004°20'2 3.7
2018-Jun-20 11:58N 51°16' E 004°20'0 0.0
2018-Jun-20 11:28N 51°16' E 004°20'0 0.0
2018-Jun-20 10:55N 51°16' E 004°20'0 0.0
2018-Jun-20 10:28N 51°16' E 004°20'0 0.0
2018-Jun-20 09:55N 51°16' E 004°20'0 0.0
2018-Jun-20 09:13N 51°16' E 004°20'0 0.0
2018-Jun-20 08:55N 51°16' E 004°20'0 0.0
2018-Jun-20 08:28N 51°16' E 004°20'0 0.0
2018-Jun-20 07:58N 51°16' E 004°20'0 0.0
2018-Jun-20 07:25N 51°16' E 004°20'0 0.0
2018-Jun-20 06:58N 51°16' E 004°20'0 0.0
2018-Jun-20 06:28N 51°16' E 004°20'0 0.0
2018-Jun-20 05:49N 51°16' E 004°20'0 0.0
2018-Jun-20 05:25N 51°16' E 004°20'0 0.0
2018-Jun-20 04:49N 51°16' E 004°20'0 0.0
2018-Jun-20 03:34N 51°16' E 004°20'0 0.0
2018-Jun-20 03:28N 51°16' E 004°20'0 0.0
2018-Jun-20 02:55N 51°16' E 004°20'0 0.0
2018-Jun-20 02:16N 51°16' E 004°20'0 0.0
2018-Jun-20 01:58N 51°16' E 004°20'0 0.0
2018-Jun-20 01:28N 51°16' E 004°20'0 0.0
2018-Jun-20 00:37N 51°16' E 004°20'0 0.0
2018-Jun-20 00:28N 51°16' E 004°20'0 0.0
2018-Jun-19 23:52N 51°16' E 004°20'0 0.0
2018-Jun-19 23:28N 51°16' E 004°20'0 0.0
2018-Jun-19 22:49N 51°16' E 004°20'0 0.0
2018-Jun-19 22:28N 51°16' E 004°20'0 0.0
2018-Jun-19 21:55N 51°16' E 004°20'0 0.0
2018-Jun-19 21:16N 51°16' E 004°20'0 0.0
2018-Jun-19 20:58N 51°16' E 004°20'0 0.0
2018-Jun-19 20:28N 51°16' E 004°20'0 0.0
2018-Jun-19 19:49N 51°16' E 004°20'0 0.0
2018-Jun-19 19:25N 51°16' E 004°20'0 0.0
2018-Jun-19 18:52N 51°16' E 004°20'0 0.0
2018-Jun-19 18:25N 51°16' E 004°20'0 0.0
2018-Jun-19 17:49N 51°16' E 004°20'0 0.0
2018-Jun-19 17:28N 51°16' E 004°20'0 0.0
2018-Jun-19 16:58N 51°16' E 004°20'0 0.0
2018-Jun-19 16:28N 51°16' E 004°20'0 0.0
2018-Jun-19 15:52N 51°16' E 004°20'0 0.0
2018-Jun-19 15:28N 51°16' E 004°20'0 0.0
2018-Jun-19 14:55N 51°16' E 004°20'0 0.0
2018-Jun-19 14:22N 51°16' E 004°20'0 0.0
2018-Jun-19 13:55N 51°16' E 004°20'0 0.0
2018-Jun-19 13:28N 51°16' E 004°20'0 0.0
2018-Jun-19 12:49N 51°16' E 004°20'0 0.0
2018-Jun-19 12:22N 51°16' E 004°20'0 0.0
2018-Jun-19 11:58N 51°16' E 004°20'0 0.0
2018-Jun-19 11:28N 51°16' E 004°20'0 0.0
2018-Jun-19 10:58N 51°16' E 004°20'0 0.0
2018-Jun-19 10:28N 51°16' E 004°20'0 0.0
2018-Jun-19 09:58N 51°16' E 004°20'0 0.0
2018-Jun-19 09:25N 51°16' E 004°20'0 0.0
2018-Jun-19 08:58N 51°16' E 004°20'0 0.0
2018-Jun-19 08:28N 51°16' E 004°20'0 0.0
2018-Jun-19 07:58N 51°16' E 004°20'0 0.0
2018-Jun-19 07:22N 51°16' E 004°20'0 0.0
2018-Jun-19 06:58N 51°16' E 004°20'0 0.0
2018-Jun-19 06:28N 51°16' E 004°20'0 0.0
2018-Jun-19 05:49N 51°16' E 004°20'0 0.0
2018-Jun-19 05:25N 51°16' E 004°20'0 0.0
2018-Jun-19 04:58N 51°16' E 004°20'0 0.0
2018-Jun-19 04:26N 51°16' E 004°20'0 1.1
2018-Jun-19 04:00N 51°16' E 004°20'1 1.2
2018-Jun-19 03:30N 51°17' E 004°20'0 0.0
2018-Jun-19 03:00N 51°17' E 004°20'1 3.0
2018-Jun-19 02:30N 51°18' E 004°18'3 5.6
2018-Jun-19 02:00N 51°20' E 004°16'5 9.0
2018-Jun-19 01:30N 51°24' E 004°12'5 9.3
2018-Jun-19 01:00N 51°22' E 004°05'510.0
2018-Jun-19 00:30N 51°26' E 004°00'510.9
2018-Jun-19 00:00N 51°22' E 003°55'510.1
2018-Jun-18 23:30N 51°21' E 003°47'510.0
2018-Jun-18 23:00N 51°25' E 003°42'5 9.5
2018-Jun-18 22:30N 51°25' E 003°34'4 7.6
2018-Jun-18 22:00N 51°25' E 003°28'4 8.1
2018-Jun-18 21:30N 51°24' E 003°22'612.2
2018-Jun-18 21:00N 51°24' E 003°12'714.0
2018-Jun-18 20:31N 51°25' E 003°01'612.2
2018-Jun-18 20:00N 51°31' E 003°04'813.5
2018-Jun-18 19:26N 51°38' E 003°10'613.5
2018-Jun-18 18:58N 51°44' E 003°14'611.6
2018-Jun-18 18:28N 51°49' E 003°16'612.1
2018-Jun-18 17:58N 51°55' E 003°19'612.0
2018-Jun-18 17:26N 52°01' E 003°21'512.2
2018-Jun-18 17:00N 52°07' E 003°22'612.5
2018-Jun-18 16:30N 52°13' E 003°23'713.2
2018-Jun-18 16:00N 52°19' E 003°24'714.0
2018-Jun-18 15:30N 52°26' E 003°25'1714.6
2018-Jun-18 14:20N 52°42' E 003°37'515.4
2018-Jun-18 13:59N 52°46' E 003°42'38913.4
2018-Jun-17 09:00N 57°45' E 010°59'815.1
2018-Jun-17 08:30N 57°39' E 011°08'714.7
2018-Jun-17 08:00N 57°34' E 011°17'714.2
2018-Jun-17 07:30N 57°29' E 011°27'714.4
2018-Jun-17 07:00N 57°22' E 011°32'815.3
2018-Jun-17 06:30N 57°15' E 011°37'11914.2
2018-Jun-16 22:08N 55°17' E 011°04'213.6
2018-Jun-16 22:00N 55°16' E 011°05'714.3
2018-Jun-16 21:30N 55°09' E 011°04'815.3
2018-Jun-16 21:00N 55°01' E 011°03'714.5
2018-Jun-16 20:30N 54°55' E 010°55'815.3
2018-Jun-16 20:00N 54°48' E 010°53'714.4
2018-Jun-16 19:30N 54°41' E 010°57'815.8
2018-Jun-16 19:00N 54°37' E 011°09'815.4
2018-Jun-16 18:30N 54°34' E 011°21'815.0
2018-Jun-16 18:00N 54°30' E 011°32'815.7
2018-Jun-16 17:30N 54°27' E 011°45'714.9
2018-Jun-16 17:00N 54°26' E 011°57'815.1
2018-Jun-16 16:30N 54°28' E 012°10'815.3
2018-Jun-16 16:00N 54°35' E 012°14'815.1
2018-Jun-16 15:30N 54°41' E 012°23'715.0
2018-Jun-16 15:00N 54°44' E 012°35'815.4
2018-Jun-16 14:30N 54°48' E 012°46'1016.1
2018-Jun-16 13:54N 54°51' E 013°02'616.1
2018-Jun-16 13:30N 54°53' E 013°12'816.3
2018-Jun-16 13:00N 54°56' E 013°26'816.0
2018-Jun-16 12:30N 54°59' E 013°39'1115.7
2018-Jun-16 11:47N 55°03' E 013°57'1215.3
2018-Jun-16 11:02N 55°10' E 014°13'115.7
2018-Jun-16 11:00N 55°10' E 014°14'815.7
2018-Jun-16 10:30N 55°17' E 014°21'815.7
2018-Jun-16 10:00N 55°23' E 014°29'815.9
2018-Jun-16 09:30N 55°29' E 014°39'815.6
2018-Jun-16 08:59N 55°33' E 014°51'715.3
2018-Jun-16 08:30N 55°36' E 015°03'815.5
2018-Jun-16 08:00N 55°40' E 015°15'815.6
2018-Jun-16 07:30N 55°43' E 015°27'815.6
2018-Jun-16 07:00N 55°47' E 015°40'815.5
2018-Jun-16 06:30N 55°50' E 015°52'24715.3
2018-Jun-15 14:23N 58°50' E 021°08'615.3
2018-Jun-15 14:00N 58°54' E 021°15'815.3
2018-Jun-15 13:30N 58°60' E 021°25'815.3
2018-Jun-15 13:00N 59°06' E 021°34'915.0
2018-Jun-15 12:26N 59°12' E 021°45'815.1
2018-Jun-15 11:56N 59°17' E 021°57'915.1
2018-Jun-15 11:21N 59°22' E 022°11'1315.0
2018-Jun-15 10:30N 59°29' E 022°31'714.8
2018-Jun-15 10:00N 59°31' E 022°45'814.2
2018-Jun-15 09:26N 59°34' E 023°01'614.4
2018-Jun-15 09:00N 59°35' E 023°12'714.5
2018-Jun-15 08:30N 59°38' E 023°27'714.4
2018-Jun-15 08:00N 59°40' E 023°40'714.6
2018-Jun-15 07:30N 59°42' E 023°54'814.5
2018-Jun-15 06:56N 59°45' E 024°09'916.5
2018-Jun-15 06:24N 59°47' E 024°26'512.6
2018-Jun-15 06:00N 59°48' E 024°35'714.5
2018-Jun-15 05:30N 59°50' E 024°49'714.5
2018-Jun-15 05:00N 59°52' E 025°04'814.8
2018-Jun-15 04:27N 59°55' E 025°18'614.5
2018-Jun-15 04:00N 59°58' E 025°29'510.4
2018-Jun-15 03:30N 60°03' E 025°34'714.1
2018-Jun-15 03:00N 60°10' E 025°36'714.2
2018-Jun-15 02:29N 60°17' E 025°33'4 0.1
2018-Jun-13 19:41N 60°14' E 025°35'315.6
2018-Jun-13 19:30N 60°11' E 025°36'816.2
2018-Jun-13 19:00N 60°03' E 025°34'3 5.9
2018-Jun-13 18:30N 60°00' E 025°31'0 0.0
2018-Jun-13 18:00N 60°00' E 025°31'0 0.0
2018-Jun-13 17:30N 60°00' E 025°31'0 0.0
2018-Jun-13 17:00N 60°00' E 025°31'0 0.0
2018-Jun-13 16:30N 60°00' E 025°31'0 0.0
2018-Jun-13 16:00N 60°00' E 025°31'0 0.0
2018-Jun-13 15:30N 60°00' E 025°31'0 0.0
2018-Jun-13 15:00N 60°00' E 025°31'0 0.0
2018-Jun-13 14:30N 60°00' E 025°31'0 0.0
2018-Jun-13 14:00N 60°00' E 025°31'0 0.0
2018-Jun-13 13:30N 60°01' E 025°31'0 0.0
2018-Jun-13 13:00N 60°00' E 025°31'0 0.0
2018-Jun-13 12:29N 60°01' E 025°31'4 9.0
2018-Jun-13 12:00N 59°56' E 025°28'816.3
2018-Jun-13 11:30N 59°50' E 025°19'815.9
2018-Jun-13 10:59N 59°48' E 025°03'816.2
2018-Jun-13 10:30N 59°46' E 024°48'816.3
2018-Jun-13 10:00N 59°44' E 024°32'816.1
2018-Jun-13 09:30N 59°42' E 024°17'816.1
2018-Jun-13 09:00N 59°38' E 024°03'816.0
2018-Jun-13 08:30N 59°35' E 023°48'816.3
2018-Jun-13 08:00N 59°32' E 023°33'816.1
2018-Jun-13 07:30N 59°30' E 023°18'816.1
2018-Jun-13 07:00N 59°28' E 023°02'4515.8
2018-Jun-13 04:11N 59°06' E 021°46'416.0
2018-Jun-13 03:57N 59°03' E 021°42'29014.5
2018-Jun-12 07:58N 55°37' E 015°24'510.7
2018-Jun-12 07:30N 55°35' E 015°17'610.9
2018-Jun-12 06:58N 55°32' E 015°07'511.2
2018-Jun-12 06:30N 55°30' E 014°59'611.2
2018-Jun-12 06:00N 55°27' E 014°50'611.2
2018-Jun-12 05:30N 55°25' E 014°41'611.1
2018-Jun-12 05:00N 55°20' E 014°35'611.1
2018-Jun-12 04:30N 55°16' E 014°29'611.1
2018-Jun-12 04:00N 55°12' E 014°23'611.1
2018-Jun-12 03:30N 55°07' E 014°17'511.1
2018-Jun-12 03:00N 55°03' E 014°11'1011.1
2018-Jun-12 02:08N 54°58' E 013°56'411.7
2018-Jun-12 01:49N 54°57' E 013°50'5511.1
2018-Jun-11 20:52N 54°37' E 012°22'410.9
2018-Jun-11 20:30N 54°34' E 012°18'611.3
2018-Jun-11 20:00N 54°28' E 012°15'510.9
2018-Jun-11 19:30N 54°25' E 012°08'611.5
2018-Jun-11 18:59N 54°24' E 011°57'2212.0
2018-Jun-11 17:09N 54°32' E 011°22'212.2
2018-Jun-11 17:00N 54°33' E 011°19'612.3
2018-Jun-11 16:30N 54°35' E 011°10'611.9
2018-Jun-11 16:00N 54°38' E 011°01'612.2
2018-Jun-11 15:30N 54°42' E 010°52'611.9
2018-Jun-11 15:00N 54°47' E 010°51'713.1
2018-Jun-11 14:30N 54°54' E 010°53'611.7
2018-Jun-11 14:00N 54°59' E 010°60'611.2
2018-Jun-11 13:30N 55°04' E 011°02'612.1
2018-Jun-11 13:00N 55°10' E 011°03'510.5
2018-Jun-11 12:30N 55°15' E 011°05'  
Track history (hours):
 
Tides and Currents Weather Stations Pressure Air Temp Water Temp Dewpoint Dewpoint Depression Visibility Wind Speed Wind Dir Waves Ship Positions

Coral Pearl

Last reported at 2018-Jun-21 09:56 UTC. Time now 2018-Jun-21 10:14 UTC.
Position N 51°02' E 002°16'.

Length 115 m; draft 6 m.

Type: Ship. MMSI: 244870430.

Date/timePositionNaut miles runAvg speedWind from/ knotsBaromVisibWave heightAir tempDewpointWater temp
2018-Jun-21 09:56N 51°02' E 002°16'0 0.0
2018-Jun-21 09:29N 51°02' E 002°16'0 0.0
2018-Jun-21 08:50N 51°02' E 002°16'0 0.0
2018-Jun-21 08:26N 51°02' E 002°16'0 0.0
2018-Jun-21 07:59N 51°02' E 002°16'0 0.0
2018-Jun-21 07:26N 51°02' E 002°16'0 0.0
2018-Jun-21 06:59N 51°02' E 002°16'0 0.0
2018-Jun-21 06:29N 51°02' E 002°16'0 0.0
2018-Jun-21 05:32N 51°02' E 002°16'0 0.0
2018-Jun-21 05:29N 51°02' E 002°16'0 0.0
2018-Jun-21 04:59N 51°02' E 002°16'0 0.0
2018-Jun-21 04:29N 51°02' E 002°16'0 0.0
2018-Jun-21 04:00N 51°02' E 002°16'2 3.1
2018-Jun-21 03:30N 51°03' E 002°18'2 2.3
2018-Jun-21 02:31N 51°04' E 002°21'0 6.0
2018-Jun-21 02:30N 51°04' E 002°21'612.0
2018-Jun-21 02:00N 51°03' E 002°12'815.2
2018-Jun-21 01:28N 51°02' E 001°59'612.3
2018-Jun-21 01:00N 51°02' E 001°50'2 5.0
2018-Jun-21 00:30N 51°03' E 001°46'2 4.6
2018-Jun-21 00:00N 51°05' E 001°44'4 9.0
2018-Jun-20 23:31N 51°09' E 001°41'611.8
2018-Jun-20 23:01N 51°14' E 001°46'611.8
2018-Jun-20 22:30N 51°19' E 001°50'714.3
2018-Jun-20 22:00N 51°25' E 001°57'815.0
2018-Jun-20 21:31N 51°23' E 002°08'714.6
2018-Jun-20 21:00N 51°21' E 002°20'814.4
2018-Jun-20 20:27N 51°23' E 002°32'614.6
2018-Jun-20 20:00N 51°24' E 002°43'612.1
2018-Jun-20 19:30N 51°25' E 002°52'815.2
2018-Jun-20 19:00N 51°25' E 003°04'714.4
2018-Jun-20 18:30N 51°25' E 003°16'714.3
2018-Jun-20 18:00N 51°25' E 003°27'713.8
2018-Jun-20 17:31N 51°26' E 003°38'612.3
2018-Jun-20 17:01N 51°22' E 003°45'713.1
2018-Jun-20 16:31N 51°22' E 003°55'5 9.7
2018-Jun-20 16:01N 51°25' E 004°02'510.7
2018-Jun-20 15:31N 51°23' E 004°10'5 9.9
2018-Jun-20 15:01N 51°21' E 004°17'0 0.4
2018-Jun-20 14:30N 51°21' E 004°17'0 0.0
2018-Jun-20 14:00N 51°21' E 004°17'0 0.7
2018-Jun-20 13:29N 51°21' E 004°18'1 1.8
2018-Jun-20 13:00N 51°20' E 004°18'3 5.0
2018-Jun-20 12:30N 51°18' E 004°20'2 3.7
2018-Jun-20 11:58N 51°16' E 004°20'0 0.0
2018-Jun-20 11:28N 51°16' E 004°20'0 0.0
2018-Jun-20 10:55N 51°16' E 004°20'0 0.0
2018-Jun-20 10:28N 51°16' E 004°20'0 0.0
2018-Jun-20 09:55N 51°16' E 004°20'0 0.0
2018-Jun-20 09:13N 51°16' E 004°20'0 0.0
2018-Jun-20 08:55N 51°16' E 004°20'0 0.0
2018-Jun-20 08:28N 51°16' E 004°20'0 0.0
2018-Jun-20 07:58N 51°16' E 004°20'0 0.0
2018-Jun-20 07:25N 51°16' E 004°20'0 0.0
2018-Jun-20 06:58N 51°16' E 004°20'0 0.0
2018-Jun-20 06:28N 51°16' E 004°20'0 0.0
2018-Jun-20 05:49N 51°16' E 004°20'0 0.0
2018-Jun-20 05:25N 51°16' E 004°20'0 0.0
2018-Jun-20 04:49N 51°16' E 004°20'0 0.0
2018-Jun-20 03:34N 51°16' E 004°20'0 0.0
2018-Jun-20 03:28N 51°16' E 004°20'0 0.0
2018-Jun-20 02:55N 51°16' E 004°20'0 0.0
2018-Jun-20 02:16N 51°16' E 004°20'0 0.0
2018-Jun-20 01:58N 51°16' E 004°20'0 0.0
2018-Jun-20 01:28N 51°16' E 004°20'0 0.0
2018-Jun-20 00:37N 51°16' E 004°20'0 0.0
2018-Jun-20 00:28N 51°16' E 004°20'0 0.0
2018-Jun-19 23:52N 51°16' E 004°20'0 0.0
2018-Jun-19 23:28N 51°16' E 004°20'0 0.0
2018-Jun-19 22:49N 51°16' E 004°20'0 0.0
2018-Jun-19 22:28N 51°16' E 004°20'0 0.0
2018-Jun-19 21:55N 51°16' E 004°20'0 0.0
2018-Jun-19 21:16N 51°16' E 004°20'0 0.0
2018-Jun-19 20:58N 51°16' E 004°20'0 0.0
2018-Jun-19 20:28N 51°16' E 004°20'0 0.0
2018-Jun-19 19:49N 51°16' E 004°20'0 0.0
2018-Jun-19 19:25N 51°16' E 004°20'0 0.0
2018-Jun-19 18:52N 51°16' E 004°20'0 0.0
2018-Jun-19 18:25N 51°16' E 004°20'0 0.0
2018-Jun-19 17:49N 51°16' E 004°20'0 0.0
2018-Jun-19 17:28N 51°16' E 004°20'0 0.0
2018-Jun-19 16:58N 51°16' E 004°20'0 0.0
2018-Jun-19 16:28N 51°16' E 004°20'0 0.0
2018-Jun-19 15:52N 51°16' E 004°20'0 0.0
2018-Jun-19 15:28N 51°16' E 004°20'0 0.0
2018-Jun-19 14:55N 51°16' E 004°20'0 0.0
2018-Jun-19 14:22N 51°16' E 004°20'0 0.0
2018-Jun-19 13:55N 51°16' E 004°20'0 0.0
2018-Jun-19 13:28N 51°16' E 004°20'0 0.0
2018-Jun-19 12:49N 51°16' E 004°20'0 0.0
2018-Jun-19 12:22N 51°16' E 004°20'0 0.0
2018-Jun-19 11:58N 51°16' E 004°20'0 0.0
2018-Jun-19 11:28N 51°16' E 004°20'0 0.0
2018-Jun-19 10:58N 51°16' E 004°20'0 0.0
2018-Jun-19 10:28N 51°16' E 004°20'0 0.0
2018-Jun-19 09:58N 51°16' E 004°20'0 0.0
2018-Jun-19 09:25N 51°16' E 004°20'0 0.0
2018-Jun-19 08:58N 51°16' E 004°20'0 0.0
2018-Jun-19 08:28N 51°16' E 004°20'0 0.0
2018-Jun-19 07:58N 51°16' E 004°20'0 0.0
2018-Jun-19 07:22N 51°16' E 004°20'0 0.0
2018-Jun-19 06:58N 51°16' E 004°20'0 0.0
2018-Jun-19 06:28N 51°16' E 004°20'0 0.0
2018-Jun-19 05:49N 51°16' E 004°20'0 0.0
2018-Jun-19 05:25N 51°16' E 004°20'0 0.0
2018-Jun-19 04:58N 51°16' E 004°20'0 0.0
2018-Jun-19 04:26N 51°16' E 004°20'0 1.1
2018-Jun-19 04:00N 51°16' E 004°20'1 1.2
2018-Jun-19 03:30N 51°17' E 004°20'0 0.0
2018-Jun-19 03:00N 51°17' E 004°20'1 3.0
2018-Jun-19 02:30N 51°18' E 004°18'3 5.6
2018-Jun-19 02:00N 51°20' E 004°16'5 9.0
2018-Jun-19 01:30N 51°24' E 004°12'5 9.3
2018-Jun-19 01:00N 51°22' E 004°05'510.0
2018-Jun-19 00:30N 51°26' E 004°00'510.9
2018-Jun-19 00:00N 51°22' E 003°55'510.1
2018-Jun-18 23:30N 51°21' E 003°47'510.0
2018-Jun-18 23:00N 51°25' E 003°42'5 9.5
2018-Jun-18 22:30N 51°25' E 003°34'4 7.6
2018-Jun-18 22:00N 51°25' E 003°28'4 8.1
2018-Jun-18 21:30N 51°24' E 003°22'612.2
2018-Jun-18 21:00N 51°24' E 003°12'714.0
2018-Jun-18 20:31N 51°25' E 003°01'612.2
2018-Jun-18 20:00N 51°31' E 003°04'813.5
2018-Jun-18 19:26N 51°38' E 003°10'613.5
2018-Jun-18 18:58N 51°44' E 003°14'611.6
2018-Jun-18 18:28N 51°49' E 003°16'612.1
2018-Jun-18 17:58N 51°55' E 003°19'612.0
2018-Jun-18 17:26N 52°01' E 003°21'512.2
2018-Jun-18 17:00N 52°07' E 003°22'612.5
2018-Jun-18 16:30N 52°13' E 003°23'713.2
2018-Jun-18 16:00N 52°19' E 003°24'714.0
2018-Jun-18 15:30N 52°26' E 003°25'1714.6
2018-Jun-18 14:20N 52°42' E 003°37'515.4
2018-Jun-18 13:59N 52°46' E 003°42'38913.4
2018-Jun-17 09:00N 57°45' E 010°59'815.1
2018-Jun-17 08:30N 57°39' E 011°08'714.7
2018-Jun-17 08:00N 57°34' E 011°17'714.2
2018-Jun-17 07:30N 57°29' E 011°27'714.4
2018-Jun-17 07:00N 57°22' E 011°32'815.3
2018-Jun-17 06:30N 57°15' E 011°37'11914.2
2018-Jun-16 22:08N 55°17' E 011°04'213.6
2018-Jun-16 22:00N 55°16' E 011°05'714.3
2018-Jun-16 21:30N 55°09' E 011°04'815.3
2018-Jun-16 21:00N 55°01' E 011°03'714.5
2018-Jun-16 20:30N 54°55' E 010°55'815.3
2018-Jun-16 20:00N 54°48' E 010°53'714.4
2018-Jun-16 19:30N 54°41' E 010°57'815.8
2018-Jun-16 19:00N 54°37' E 011°09'815.4
2018-Jun-16 18:30N 54°34' E 011°21'815.0
2018-Jun-16 18:00N 54°30' E 011°32'815.7
2018-Jun-16 17:30N 54°27' E 011°45'714.9
2018-Jun-16 17:00N 54°26' E 011°57'815.1
2018-Jun-16 16:30N 54°28' E 012°10'815.3
2018-Jun-16 16:00N 54°35' E 012°14'815.1
2018-Jun-16 15:30N 54°41' E 012°23'715.0
2018-Jun-16 15:00N 54°44' E 012°35'815.4
2018-Jun-16 14:30N 54°48' E 012°46'1016.1
2018-Jun-16 13:54N 54°51' E 013°02'616.1
2018-Jun-16 13:30N 54°53' E 013°12'816.3
2018-Jun-16 13:00N 54°56' E 013°26'816.0
2018-Jun-16 12:30N 54°59' E 013°39'1115.7
2018-Jun-16 11:47N 55°03' E 013°57'1215.3
2018-Jun-16 11:02N 55°10' E 014°13'115.7
2018-Jun-16 11:00N 55°10' E 014°14'815.7
2018-Jun-16 10:30N 55°17' E 014°21'815.7
2018-Jun-16 10:00N 55°23' E 014°29'815.9
2018-Jun-16 09:30N 55°29' E 014°39'815.6
2018-Jun-16 08:59N 55°33' E 014°51'715.3
2018-Jun-16 08:30N 55°36' E 015°03'815.5
2018-Jun-16 08:00N 55°40' E 015°15'815.6
2018-Jun-16 07:30N 55°43' E 015°27'815.6
2018-Jun-16 07:00N 55°47' E 015°40'815.5
2018-Jun-16 06:30N 55°50' E 015°52'24715.3
2018-Jun-15 14:23N 58°50' E 021°08'615.3
2018-Jun-15 14:00N 58°54' E 021°15'815.3
2018-Jun-15 13:30N 58°60' E 021°25'815.3
2018-Jun-15 13:00N 59°06' E 021°34'915.0
2018-Jun-15 12:26N 59°12' E 021°45'815.1
2018-Jun-15 11:56N 59°17' E 021°57'915.1
2018-Jun-15 11:21N 59°22' E 022°11'1315.0
2018-Jun-15 10:30N 59°29' E 022°31'714.8
2018-Jun-15 10:00N 59°31' E 022°45'814.2
2018-Jun-15 09:26N 59°34' E 023°01'614.4
2018-Jun-15 09:00N 59°35' E 023°12'714.5
2018-Jun-15 08:30N 59°38' E 023°27'714.4
2018-Jun-15 08:00N 59°40' E 023°40'714.6
2018-Jun-15 07:30N 59°42' E 023°54'814.5
2018-Jun-15 06:56N 59°45' E 024°09'916.5
2018-Jun-15 06:24N 59°47' E 024°26'512.6
2018-Jun-15 06:00N 59°48' E 024°35'714.5
2018-Jun-15 05:30N 59°50' E 024°49'714.5
2018-Jun-15 05:00N 59°52' E 025°04'814.8
2018-Jun-15 04:27N 59°55' E 025°18'614.5
2018-Jun-15 04:00N 59°58' E 025°29'510.4
2018-Jun-15 03:30N 60°03' E 025°34'714.1
2018-Jun-15 03:00N 60°10' E 025°36'714.2
2018-Jun-15 02:29N 60°17' E 025°33'4 0.1
2018-Jun-13 19:41N 60°14' E 025°35'315.6
2018-Jun-13 19:30N 60°11' E 025°36'816.2
2018-Jun-13 19:00N 60°03' E 025°34'3 5.9
2018-Jun-13 18:30N 60°00' E 025°31'0 0.0
2018-Jun-13 18:00N 60°00' E 025°31'0 0.0
2018-Jun-13 17:30N 60°00' E 025°31'0 0.0
2018-Jun-13 17:00N 60°00' E 025°31'0 0.0
2018-Jun-13 16:30N 60°00' E 025°31'0 0.0
2018-Jun-13 16:00N 60°00' E 025°31'0 0.0
2018-Jun-13 15:30N 60°00' E 025°31'0 0.0
2018-Jun-13 15:00N 60°00' E 025°31'0 0.0
2018-Jun-13 14:30N 60°00' E 025°31'0 0.0
2018-Jun-13 14:00N 60°00' E 025°31'0 0.0
2018-Jun-13 13:30N 60°01' E 025°31'0 0.0
2018-Jun-13 13:00N 60°00' E 025°31'0 0.0
2018-Jun-13 12:29N 60°01' E 025°31'4 9.0
2018-Jun-13 12:00N 59°56' E 025°28'816.3
2018-Jun-13 11:30N 59°50' E 025°19'815.9
2018-Jun-13 10:59N 59°48' E 025°03'816.2
2018-Jun-13 10:30N 59°46' E 024°48'816.3
2018-Jun-13 10:00N 59°44' E 024°32'816.1
2018-Jun-13 09:30N 59°42' E 024°17'816.1
2018-Jun-13 09:00N 59°38' E 024°03'816.0
2018-Jun-13 08:30N 59°35' E 023°48'816.3
2018-Jun-13 08:00N 59°32' E 023°33'816.1
2018-Jun-13 07:30N 59°30' E 023°18'816.1
2018-Jun-13 07:00N 59°28' E 023°02'4515.8
2018-Jun-13 04:11N 59°06' E 021°46'416.0
2018-Jun-13 03:57N 59°03' E 021°42'29014.5
2018-Jun-12 07:58N 55°37' E 015°24'510.7
2018-Jun-12 07:30N 55°35' E 015°17'610.9
2018-Jun-12 06:58N 55°32' E 015°07'511.2
2018-Jun-12 06:30N 55°30' E 014°59'611.2
2018-Jun-12 06:00N 55°27' E 014°50'611.2
2018-Jun-12 05:30N 55°25' E 014°41'611.1
2018-Jun-12 05:00N 55°20' E 014°35'611.1
2018-Jun-12 04:30N 55°16' E 014°29'611.1
2018-Jun-12 04:00N 55°12' E 014°23'611.1
2018-Jun-12 03:30N 55°07' E 014°17'511.1
2018-Jun-12 03:00N 55°03' E 014°11'1011.1
2018-Jun-12 02:08N 54°58' E 013°56'411.7
2018-Jun-12 01:49N 54°57' E 013°50'5511.1
2018-Jun-11 20:52N 54°37' E 012°22'410.9
2018-Jun-11 20:30N 54°34' E 012°18'611.3
2018-Jun-11 20:00N 54°28' E 012°15'510.9
2018-Jun-11 19:30N 54°25' E 012°08'611.5
2018-Jun-11 18:59N 54°24' E 011°57'2212.0
2018-Jun-11 17:09N 54°32' E 011°22'212.2
2018-Jun-11 17:00N 54°33' E 011°19'612.3
2018-Jun-11 16:30N 54°35' E 011°10'611.9
2018-Jun-11 16:00N 54°38' E 011°01'612.2
2018-Jun-11 15:30N 54°42' E 010°52'611.9
2018-Jun-11 15:00N 54°47' E 010°51'713.1
2018-Jun-11 14:30N 54°54' E 010°53'611.7
2018-Jun-11 14:00N 54°59' E 010°60'611.2
2018-Jun-11 13:30N 55°04' E 011°02'612.1
2018-Jun-11 13:00N 55°10' E 011°03'510.5
2018-Jun-11 12:30N 55°15' E 011°05'  

Dump ship's entire track history